Time;durP1;ratioP1;P1;durP2;ratioP2;P2;SDS_P1;SDS_P2;PMS_P1;PMS_P2;Temp;Humidity;BMP_temperature;BMP_pressure;BME280_temperature;BME280_humidity;BME280_pressure;Samples;Min_cycle;Max_cycle;Signal;HPM_P1;HPM_P2
2023/09/03 00:00:40;;;;;;;5.70;3.80;;;17.00;99.90;;;;;;5078490;28;20044;-64
2023/09/03 00:03:07;;;;;;;6.75;3.38;;;17.00;99.90;;;;;;5087895;28;20044;-65
2023/09/03 00:05:35;;;;;;;7.25;3.13;;;17.00;99.90;;;;;;5077623;28;20433;-65
2023/09/03 00:08:03;;;;;;;;;;;16.90;99.90;;;;;;5061354;28;20051;-64
2023/09/03 00:10:34;;;;;;;5.47;2.83;;;16.90;99.90;;;;;;5074208;28;20391;-64
2023/09/03 00:13:03;;;;;;;6.55;3.10;;;16.80;99.90;;;;;;5088606;28;20063;-64
2023/09/03 00:15:30;;;;;;;9.43;3.95;;;16.80;99.90;;;;;;5066259;28;20071;-65
2023/09/03 00:17:57;;;;;;;9.85;4.30;;;16.60;99.90;;;;;;5079084;28;20041;-65
2023/09/03 00:20:24;;;;;;;10.60;3.47;;;16.40;99.90;;;;;;5081839;28;20032;-65
2023/09/03 00:22:51;;;;;;;6.60;3.28;;;16.40;99.90;;;;;;5082803;28;20473;-64
2023/09/03 00:25:18;;;;;;;4.85;3.30;;;16.20;99.90;;;;;;5078775;28;20048;-65
2023/09/03 00:27:44;;;;;;;7.88;3.72;;;16.20;99.90;;;;;;5082398;28;20046;-64
2023/09/03 00:30:12;;;;;;;5.63;3.30;;;16.10;99.90;;;;;;5087393;28;20051;-65
2023/09/03 00:32:39;;;;;;;5.25;3.90;;;16.00;99.90;;;;;;5058544;28;20071;-63
2023/09/03 00:35:06;;;;;;;6.57;3.97;;;16.00;99.90;;;;;;5072055;28;20052;-65
2023/09/03 00:37:33;;;;;;;6.03;3.60;;;16.00;99.90;;;;;;5072025;28;20051;-65
2023/09/03 00:40:01;;;;;;;4.53;3.75;;;16.00;99.90;;;;;;5062707;28;20123;-65
2023/09/03 00:42:27;;;;;;;8.27;3.85;;;15.90;99.90;;;;;;5070817;28;20131;-65
2023/09/03 00:44:54;;;;;;;12.75;3.92;;;15.90;99.90;;;;;;5085850;28;20067;-63
2023/09/03 00:47:21;;;;;;;6.03;4.05;;;16.00;99.90;;;;;;5058525;28;20477;-65
2023/09/03 00:49:48;;;;;;;5.38;3.63;;;15.90;99.90;;;;;;5060475;28;20044;-65
2023/09/03 00:52:19;;;;;;;8.95;4.03;;;15.80;99.90;;;;;;5089218;28;20047;-65
2023/09/03 00:54:46;;;;;;;7.82;3.70;;;15.80;99.90;;;;;;5067092;28;20050;-65
2023/09/03 00:57:13;;;;;;;5.68;3.75;;;15.70;99.90;;;;;;5084973;28;20488;-64
2023/09/03 00:59:41;;;;;;;8.07;3.90;;;15.70;99.90;;;;;;5062523;28;20512;-64
2023/09/03 01:02:12;;;;;;;7.25;3.97;;;15.60;99.90;;;;;;5067450;28;20122;-64
2023/09/03 01:04:39;;;;;;;8.10;3.58;;;15.60;99.90;;;;;;5087690;28;20135;-64
2023/09/03 01:07:08;;;;;;;;;;;15.40;99.90;;;;;;5076246;28;20060;-65
2023/09/03 01:09:35;;;;;;;6.10;4.03;;;15.50;99.90;;;;;;5062974;28;19930;-65
2023/09/03 01:12:10;;;;;;;5.22;3.83;;;15.50;99.90;;;;;;5062575;28;20048;-64
2023/09/03 01:14:52;;;;;;;6.15;3.70;;;15.50;99.90;;;;;;5075362;28;20415;-64
2023/09/03 01:17:29;;;;;;;5.40;3.58;;;15.60;99.90;;;;;;5073236;28;20460;-64
2023/09/03 01:20:05;;;;;;;5.57;3.88;;;15.60;99.90;;;;;;5075170;28;20040;-65
2023/09/03 01:22:46;;;;;;;4.45;3.38;;;15.60;99.90;;;;;;5069316;28;20040;-64
2023/09/03 01:25:23;;;;;;;5.30;3.83;;;15.70;99.90;;;;;;5064925;28;20040;-65
2023/09/03 01:28:02;;;;;;;5.25;3.78;;;15.70;99.90;;;;;;5093083;28;20076;-65
2023/09/03 01:30:29;;;;;;;4.90;3.47;;;15.60;99.90;;;;;;5062510;28;20040;-65
2023/09/03 01:32:57;;;;;;;10.85;4.05;;;15.60;99.90;;;;;;5067176;28;20688;-64
2023/09/03 01:35:24;;;;;;;3.88;3.25;;;15.50;99.90;;;;;;5074057;28;20040;-63
2023/09/03 01:37:51;;;;;;;4.82;3.17;;;15.50;99.90;;;;;;5074654;28;20051;-64
2023/09/03 01:40:18;;;;;;;5.70;3.22;;;15.40;99.90;;;;;;5092169;28;20055;-65
2023/09/03 01:42:45;;;;;;;4.80;3.78;;;15.30;99.90;;;;;;5061520;28;20044;-64
2023/09/03 01:45:11;;;;;;;5.32;3.50;;;15.30;99.90;;;;;;5071877;28;20051;-65
2023/09/03 01:48:05;;;;;;;4.75;3.40;;;15.30;99.90;;;;;;5086334;28;20584;-64
2023/09/03 01:50:46;;;;;;;5.13;3.60;;;15.30;99.90;;;;;;5068043;28;20044;-65
2023/09/03 01:53:59;;;;;;;5.10;3.80;;;15.30;99.90;;;;;;5090640;28;20531;-65
2023/09/03 01:56:29;;;;;;;4.65;3.60;;;15.30;99.90;;;;;;5071598;28;20054;-65
2023/09/03 01:59:01;;;;;;;7.00;3.80;;;15.30;99.90;;;;;;5062093;28;20476;-64
2023/09/03 02:01:30;;;;;;;6.05;3.45;;;15.30;99.90;;;;;;5054707;28;20144;-65
2023/09/03 02:03:58;;;;;;;9.18;3.90;;;15.30;99.90;;;;;;5062501;28;20120;-64
2023/09/03 02:06:25;;;;;;;4.63;3.25;;;15.20;99.90;;;;;;5080972;28;20051;-64
2023/09/03 02:08:52;;;;;;;5.72;3.63;;;15.20;99.90;;;;;;5058977;28;20036;-64
2023/09/03 02:11:19;;;;;;;5.80;3.42;;;15.30;99.90;;;;;;5063158;28;20048;-64
2023/09/03 02:13:45;;;;;;;4.88;3.78;;;15.20;99.90;;;;;;5083856;28;20496;-64
2023/09/03 02:16:13;;;;;;;;;;;15.30;99.90;;;;;;5064088;28;20494;-65
2023/09/03 02:18:39;;;;;;;6.63;3.65;;;15.10;99.90;;;;;;5067418;28;19920;-64
2023/09/03 02:21:06;;;;;;;9.70;3.80;;;15.10;99.90;;;;;;5059852;28;20041;-65
2023/09/03 02:23:33;;;;;;;8.38;3.58;;;15.00;99.90;;;;;;5066115;28;20147;-65
2023/09/03 02:26:01;;;;;;;6.32;3.88;;;15.00;99.90;;;;;;5085501;28;20044;-64
2023/09/03 02:28:29;;;;;;;8.02;4.25;;;14.90;99.90;;;;;;5074842;28;20040;-64
2023/09/03 02:30:56;;;;;;;8.27;3.63;;;14.90;99.90;;;;;;5076395;28;20071;-64
2023/09/03 02:33:23;;;;;;;11.68;4.55;;;14.90;99.90;;;;;;5063099;28;20052;-65
2023/09/03 02:35:50;;;;;;;8.35;3.55;;;15.00;99.90;;;;;;5077125;28;20046;-65
2023/09/03 02:38:18;;;;;;;5.38;3.95;;;15.00;99.90;;;;;;5083077;28;20040;-64
2023/09/03 02:40:45;;;;;;;;;;;15.10;99.90;;;;;;5066733;28;20136;-64
2023/09/03 02:43:12;;;;;;;11.27;3.75;;;15.10;99.90;;;;;;5054249;28;19928;-64
2023/09/03 02:45:39;;;;;;;5.57;3.58;;;15.10;99.90;;;;;;5072669;28;20072;-63
2023/09/03 02:48:08;;;;;;;4.05;3.35;;;15.10;99.90;;;;;;5064098;28;20497;-64
2023/09/03 02:50:36;;;;;;;6.68;3.10;;;15.20;99.90;;;;;;5075246;28;20123;-65
2023/09/03 02:53:07;;;;;;;7.20;3.30;;;15.10;99.90;;;;;;5056199;28;20055;-64
2023/09/03 02:55:33;;;;;;;5.30;3.38;;;15.20;99.90;;;;;;5070648;28;20048;-64
2023/09/03 02:58:00;;;;;;;4.20;3.50;;;15.20;99.90;;;;;;5085232;28;20501;-64
2023/09/03 03:00:28;;;;;;;5.28;3.67;;;15.20;99.90;;;;;;5062334;28;20509;-64
2023/09/03 03:02:55;;;;;;;4.68;2.83;;;15.20;99.90;;;;;;5060966;28;20140;-64
2023/09/03 03:05:22;;;;;;;5.53;3.22;;;15.20;99.90;;;;;;5067713;28;20044;-64
2023/09/03 03:07:49;;;;;;;6.20;3.33;;;15.10;99.90;;;;;;5066757;28;20504;-64
2023/09/03 03:10:23;;;;;;;5.68;3.28;;;15.00;99.90;;;;;;5039066;28;20048;-64
2023/09/03 03:12:50;;;;;;;4.50;3.10;;;14.90;99.90;;;;;;5058035;28;20062;-64
2023/09/03 03:15:17;;;;;;;6.75;3.00;;;14.80;99.90;;;;;;5062665;28;20055;-64
2023/09/03 03:17:45;;;;;;;8.98;5.28;;;14.80;99.90;;;;;;5054670;28;20496;-64
2023/09/03 03:20:12;;;;;;;9.00;5.85;;;14.80;99.90;;;;;;5061128;28;20045;-65
2023/09/03 03:22:39;;;;;;;8.15;5.80;;;14.80;99.90;;;;;;5054408;28;20032;-65
2023/09/03 03:25:10;;;;;;;9.02;5.53;;;14.90;99.90;;;;;;5057075;28;20136;-65
2023/09/03 03:27:37;;;;;;;7.40;5.03;;;14.90;99.90;;;;;;5064245;28;20135;-65
2023/09/03 03:30:05;;;;;;;11.23;5.45;;;14.90;99.90;;;;;;5072833;28;20059;-64
2023/09/03 03:32:32;;;;;;;10.20;5.70;;;14.90;99.90;;;;;;5070866;28;20059;-65
2023/09/03 03:35:00;;;;;;;8.10;5.40;;;14.90;99.90;;;;;;5064935;28;20070;-64
2023/09/03 03:37:28;;;;;;;12.13;5.40;;;14.90;99.90;;;;;;5072475;28;20081;-64
2023/09/03 03:39:55;;;;;;;8.77;6.13;;;14.90;99.90;;;;;;5053781;28;20041;-64
2023/09/03 03:42:22;;;;;;;8.48;6.22;;;15.00;99.90;;;;;;5053000;28;20658;-64
2023/09/03 03:44:49;;;;;;;8.02;5.68;;;15.00;99.90;;;;;;5072201;28;20044;-64
2023/09/03 03:47:17;;;;;;;13.55;5.78;;;14.90;99.90;;;;;;5069086;28;20481;-64
2023/09/03 03:49:44;;;;;;;9.57;6.30;;;14.90;99.90;;;;;;5065378;28;20055;-65
2023/09/03 03:52:10;;;;;;;6.72;5.75;;;14.90;99.90;;;;;;5073058;28;20043;-64
2023/09/03 03:54:37;;;;;;;8.80;5.85;;;14.90;99.90;;;;;;5070828;28;20048;-64
2023/09/03 03:57:04;;;;;;;7.13;3.25;;;14.90;99.90;;;;;;5068546;28;20049;-65
2023/09/03 03:59:32;;;;;;;5.32;3.75;;;14.80;99.90;;;;;;5060021;28;20477;-65
2023/09/03 04:02:00;;;;;;;10.07;4.55;;;14.70;99.90;;;;;;5064424;28;20040;-63
2023/09/03 04:04:27;;;;;;;8.50;5.53;;;14.60;99.90;;;;;;5055942;28;20048;-64
2023/09/03 04:06:54;;;;;;;7.57;5.07;;;14.50;99.90;;;;;;5084313;28;20044;-64
2023/09/03 04:09:20;;;;;;;8.07;5.82;;;14.60;99.90;;;;;;5051889;28;20079;-64
2023/09/03 04:11:48;;;;;;;7.07;5.10;;;14.60;99.90;;;;;;5058915;28;20044;-65
2023/09/03 04:14:15;;;;;;;9.68;5.05;;;14.60;99.90;;;;;;5074075;28;20041;-64
2023/09/03 04:16:42;;;;;;;9.00;5.68;;;14.50;99.90;;;;;;5078295;28;20112;-65
2023/09/03 04:19:09;;;;;;;9.77;5.70;;;14.60;99.90;;;;;;5090040;28;20489;-64
2023/09/03 04:21:35;;;;;;;11.38;5.53;;;14.60;99.90;;;;;;5066323;28;20032;-64
2023/09/03 04:24:03;;;;;;;9.65;4.88;;;14.60;99.90;;;;;;5070306;28;20681;-64
2023/09/03 04:26:30;;;;;;;6.70;4.68;;;14.60;99.90;;;;;;5075254;28;20059;-64
2023/09/03 04:28:57;;;;;;;6.40;4.50;;;14.60;99.90;;;;;;5070978;28;20036;-64
2023/09/03 04:31:24;;;;;;;9.55;4.40;;;14.50;99.90;;;;;;5084005;28;20066;-65
2023/09/03 04:33:51;;;;;;;7.75;4.80;;;14.50;99.90;;;;;;5046858;28;20591;-65
2023/09/03 04:36:18;;;;;;;9.43;3.38;;;14.50;99.90;;;;;;5090399;28;20546;-65
2023/09/03 04:38:45;;;;;;;10.40;4.10;;;14.50;99.90;;;;;;5089020;28;20032;-64
2023/09/03 04:41:14;;;;;;;5.68;4.20;;;14.40;99.90;;;;;;5071830;28;20404;-65
2023/09/03 04:44:05;;;;;;;;;;;14.30;99.90;;;;;;5067176;28;20170;-65
2023/09/03 04:46:32;;;;;;;5.03;3.80;;;14.30;99.90;;;;;;5083306;28;19927;-65
2023/09/03 04:48:59;;;;;;;4.85;4.25;;;14.20;99.90;;;;;;5062197;28;20047;-65
2023/09/03 04:51:26;;;;;;;6.55;4.38;;;14.20;99.90;;;;;;5060775;28;20078;-65
2023/09/03 04:53:54;;;;;;;6.90;3.80;;;14.20;99.90;;;;;;5088458;28;20461;-65
2023/09/03 04:56:21;;;;;;;6.43;3.95;;;14.10;99.90;;;;;;5063643;28;20101;-64
2023/09/03 04:58:48;;;;;;;5.97;3.72;;;14.20;99.90;;;;;;5069496;28;20090;-65
2023/09/03 05:01:16;;;;;;;7.78;4.70;;;14.30;99.90;;;;;;5062811;28;20034;-64
2023/09/03 05:03:50;;;;;;;8.15;3.45;;;14.30;99.90;;;;;;5066172;28;20093;-65
2023/09/03 05:06:18;;;;;;;5.60;4.47;;;14.30;99.90;;;;;;5074793;28;20044;-65
2023/09/03 05:08:48;;;;;;;5.88;3.80;;;14.20;99.90;;;;;;5066770;28;20050;-65
2023/09/03 05:11:17;;;;;;;5.47;4.00;;;14.20;99.90;;;;;;5050446;28;20131;-65
2023/09/03 05:13:46;;;;;;;4.85;3.78;;;14.20;99.90;;;;;;5064169;28;20150;-63
2023/09/03 05:16:15;;;;;;;7.38;3.75;;;14.20;99.90;;;;;;5075053;28;20409;-64
2023/09/03 05:18:42;;;;;;;6.47;4.28;;;14.20;99.90;;;;;;5061941;28;20048;-63
2023/09/03 05:21:10;;;;;;;7.20;3.97;;;14.20;99.90;;;;;;5075559;28;20040;-65
2023/09/03 05:23:37;;;;;;;6.07;3.92;;;14.30;99.90;;;;;;5055700;28;20105;-64
2023/09/03 05:26:05;;;;;;;7.22;3.20;;;14.30;99.90;;;;;;5069763;28;20048;-64
2023/09/03 05:28:33;;;;;;;4.47;3.47;;;14.40;99.90;;;;;;5060434;28;20040;-64
2023/09/03 05:31:01;;;;;;;10.07;3.58;;;14.40;99.90;;;;;;5066060;28;20094;-65
2023/09/03 05:33:28;;;;;;;;;;;14.50;99.90;;;;;;5062355;28;20414;-64
2023/09/03 05:35:55;;;;;;;7.55;3.72;;;14.60;99.90;;;;;;5073823;28;19920;-62
2023/09/03 05:38:22;;;;;;;5.15;3.65;;;14.70;99.90;;;;;;5068772;28;20045;-64
2023/09/03 05:40:49;;;;;;;5.72;3.65;;;14.80;99.90;;;;;;5073345;28;20047;-65
2023/09/03 05:43:16;;;;;;;7.47;3.83;;;14.80;99.90;;;;;;5066069;28;20044;-64
2023/09/03 05:45:45;;;;;;;4.68;3.80;;;14.90;99.90;;;;;;5089576;28;20072;-65
2023/09/03 05:48:13;;;;;;;4.93;3.58;;;15.00;99.90;;;;;;5067621;28;20397;-65
2023/09/03 05:50:40;;;;;;;4.65;3.63;;;15.10;99.90;;;;;;5073362;28;20044;-64
2023/09/03 05:53:07;;;;;;;5.00;3.20;;;15.20;99.90;;;;;;5060104;28;20501;-64
2023/09/03 05:55:39;;;;;;;6.63;3.40;;;15.10;99.90;;;;;;5070892;28;20405;-65
2023/09/03 05:58:06;;;;;;;10.02;3.20;;;15.10;99.90;;;;;;5092388;28;20500;-64
2023/09/03 06:00:39;;;;;;;5.75;3.22;;;15.10;99.90;;;;;;5064149;28;20036;-64
2023/09/03 06:03:09;;;;;;;7.43;5.15;;;15.10;99.90;;;;;;5073710;28;20042;-64
2023/09/03 06:05:39;;;;;;;5.75;4.10;;;15.30;99.90;;;;;;5069192;28;20048;-65
2023/09/03 06:08:06;;;;;;;9.85;3.95;;;15.40;99.90;;;;;;5086156;28;20036;-65
2023/09/03 06:10:36;;;;;;;6.45;3.80;;;15.40;99.90;;;;;;5077879;28;20052;-65
2023/09/03 06:13:03;;;;;;;5.97;2.80;;;15.50;99.90;;;;;;5084444;28;20036;-64
2023/09/03 06:15:30;;;;;;;3.45;2.85;;;15.50;99.90;;;;;;5085683;28;20052;-65
2023/09/03 06:17:57;;;;;;;7.20;3.20;;;15.50;99.90;;;;;;5079325;28;20036;-65
2023/09/03 06:20:24;;;;;;;6.25;4.57;;;15.70;99.90;;;;;;5077362;28;20040;-64
2023/09/03 06:22:51;;;;;;;9.65;4.35;;;15.80;99.90;;;;;;5083620;28;20036;-63
2023/09/03 06:25:18;;;;;;;13.38;3.25;;;15.90;99.90;;;;;;5091790;28;20585;-65
2023/09/03 06:27:45;;;;;;;;;;;16.00;99.90;;;;;;5091790;28;20047;-65
2023/09/03 06:30:11;;;;;;;5.28;3.20;;;15.90;99.90;;;;;;5070630;28;20006;-65
2023/09/03 06:32:38;;;;;;;3.88;3.20;;;15.90;99.90;;;;;;5081256;28;20052;-65
2023/09/03 06:35:05;;;;;;;7.85;3.53;;;15.90;99.90;;;;;;5078656;28;20131;-65
2023/09/03 06:37:32;;;;;;;4.38;3.60;;;15.90;99.90;;;;;;5082715;28;20036;-65
2023/09/03 06:39:59;;;;;;;7.65;3.97;;;15.90;99.90;;;;;;5086132;28;20037;-65
2023/09/03 06:42:27;;;;;;;6.20;4.00;;;16.00;99.90;;;;;;5081064;28;20040;-65
2023/09/03 06:44:54;;;;;;;5.72;3.70;;;15.90;99.90;;;;;;5079265;28;20051;-65
2023/09/03 06:47:21;;;;;;;7.40;3.67;;;16.00;99.90;;;;;;5079349;28;20507;-65
2023/09/03 06:49:50;;;;;;;7.47;3.90;;;16.00;99.90;;;;;;5077790;28;20056;-65
2023/09/03 06:52:18;;;;;;;6.30;3.90;;;16.10;99.90;;;;;;5077919;28;20045;-65
2023/09/03 06:54:45;;;;;;;7.47;3.70;;;16.20;99.90;;;;;;5080583;28;20047;-66
2023/09/03 06:57:12;;;;;;;;;;;16.30;99.90;;;;;;5063231;28;20052;-65
2023/09/03 06:59:54;;;;;;;11.75;5.43;;;16.40;99.90;;;;;;5079691;28;20621;-65
2023/09/03 07:02:22;;;;;;;;;;;16.60;99.90;;;;;;5080852;28;20039;-64
2023/09/03 07:04:49;;;;;;;7.45;4.95;;;16.70;99.90;;;;;;5074863;28;19973;-63
2023/09/03 07:07:16;;;;;;;5.55;4.25;;;16.70;99.90;;;;;;5072413;28;20049;-63
2023/09/03 07:09:43;;;;;;;5.15;4.22;;;16.80;99.90;;;;;;5079563;28;20051;-64
2023/09/03 07:12:10;;;;;;;8.77;5.78;;;16.90;99.90;;;;;;5086109;28;20040;-64
2023/09/03 07:14:36;;;;;;;13.00;5.45;;;16.90;99.90;;;;;;5091430;22;20042;-63
2023/09/03 07:17:03;;;;;;;6.63;5.38;;;17.00;99.90;;;;;;5073786;28;20346;-65
2023/09/03 07:19:30;;;;;;;11.05;5.45;;;17.10;99.90;;;;;;5082381;28;20037;-64
2023/09/03 07:21:57;;;;;;;8.60;5.38;;;17.10;99.90;;;;;;5080726;28;20043;-62
2023/09/03 07:24:24;;;;;;;8.50;4.55;;;17.30;99.90;;;;;;5076868;28;20052;-65
2023/09/03 07:26:50;;;;;;;12.32;5.35;;;17.40;99.90;;;;;;5064186;28;20040;-64
2023/09/03 07:29:17;;;;;;;8.35;5.03;;;17.50;99.90;;;;;;5066151;28;20122;-64
2023/09/03 07:31:44;;;;;;;6.55;4.93;;;17.70;99.90;;;;;;5068271;28;20051;-63
2023/09/03 07:34:11;;;;;;;6.43;4.90;;;17.70;99.90;;;;;;5061543;28;20524;-64
2023/09/03 07:36:41;;;;;;;6.72;4.65;;;17.80;99.90;;;;;;5065094;28;20048;-65
2023/09/03 07:39:11;;;;;;;7.53;4.72;;;17.90;99.90;;;;;;5062360;28;20063;-63
2023/09/03 07:41:39;;;;;;;6.72;4.25;;;17.90;99.90;;;;;;5065643;28;20033;-64
2023/09/03 07:44:07;;;;;;;7.40;4.80;;;18.00;99.90;;;;;;5064604;28;20028;-64
2023/09/03 07:46:34;;;;;;;6.70;4.07;;;18.00;99.90;;;;;;5071115;28;20535;-65
2023/09/03 07:49:01;;;;;;;7.25;4.40;;;18.10;99.90;;;;;;5063803;28;20041;-65
2023/09/03 07:51:27;;;;;;;6.07;3.85;;;18.30;99.90;;;;;;5062935;28;20120;-64
2023/09/03 07:53:54;;;;;;;5.85;4.35;;;18.40;99.90;;;;;;5067656;28;20617;-65
2023/09/03 07:56:21;;;;;;;7.72;4.40;;;18.50;99.90;;;;;;5071815;28;20040;-63
2023/09/03 07:58:48;;;;;;;7.07;4.43;;;18.50;99.90;;;;;;5072602;28;20044;-64
2023/09/03 08:01:16;;;;;;;7.25;4.30;;;18.60;99.90;;;;;;5060721;28;20037;-64
2023/09/03 08:03:43;;;;;;;5.63;3.80;;;18.70;99.90;;;;;;5063203;28;20101;-65
2023/09/03 08:06:10;;;;;;;7.88;4.50;;;18.80;99.90;;;;;;5070497;28;20044;-65
2023/09/03 08:08:38;;;;;;;7.95;4.07;;;19.00;99.90;;;;;;5065852;28;20497;-65
2023/09/03 08:11:05;;;;;;;5.22;3.95;;;19.10;99.90;;;;;;5064963;28;20047;-64
2023/09/03 08:13:32;;;;;;;;;;;19.30;99.90;;;;;;5054871;28;20040;-65
2023/09/03 08:15:59;;;;;;;9.90;4.18;;;19.40;99.90;;;;;;5061615;28;19921;-65
2023/09/03 08:18:26;;;;;;;7.13;3.95;;;19.50;99.90;;;;;;5066612;28;20472;-65
2023/09/03 08:20:53;;;;;;;7.50;4.45;;;19.50;99.90;;;;;;5055453;28;20051;-65
2023/09/03 08:23:19;;;;;;;;;;;19.50;99.90;;;;;;5057019;28;20393;-65
2023/09/03 08:25:47;;;;;;;7.53;4.70;;;19.40;99.90;;;;;;5073419;28;20031;-65
2023/09/03 08:28:13;;;;;;;6.20;3.88;;;19.40;99.90;;;;;;5068360;28;20069;-64
2023/09/03 08:30:40;;;;;;;8.23;4.43;;;19.50;99.90;;;;;;5053568;28;20048;-65
2023/09/03 08:33:07;;;;;;;6.20;4.10;;;19.60;99.90;;;;;;5063377;28;20037;-65
2023/09/03 08:35:36;;;;;;;7.93;4.28;;;19.60;99.90;;;;;;5064652;28;20037;-63
2023/09/03 08:38:03;;;;;;;5.63;4.13;;;19.80;99.90;;;;;;5073018;28;20048;-64
2023/09/03 08:40:32;;;;;;;6.78;4.60;;;20.10;99.90;;;;;;5073367;28;20048;-65
2023/09/03 08:43:01;;;;;;;9.00;4.22;;;20.20;99.90;;;;;;5068049;28;20056;-65
2023/09/03 08:45:31;;;;;;;7.13;4.45;;;20.40;99.90;;;;;;5072126;28;20054;-64
2023/09/03 08:47:58;;;;;;;3.92;3.53;;;20.80;99.90;;;;;;5070346;28;20094;-64
2023/09/03 08:50:26;;;;;;;4.75;4.00;;;20.90;99.90;;;;;;5066341;28;20071;-65
2023/09/03 08:52:54;;;;;;;7.28;3.97;;;21.00;99.90;;;;;;5044740;28;20055;-65
2023/09/03 08:55:22;;;;;;;8.48;4.00;;;21.10;99.90;;;;;;5073554;28;20055;-65
2023/09/03 08:57:53;;;;;;;5.22;4.13;;;21.20;99.90;;;;;;5067379;28;20040;-65
2023/09/03 09:00:21;;;;;;;7.95;4.65;;;21.30;99.90;;;;;;5066749;28;20154;-65
2023/09/03 09:02:48;;;;;;;5.15;3.90;;;21.20;99.90;;;;;;5067227;28;20115;-65
2023/09/03 09:05:15;;;;;;;9.07;4.30;;;21.30;99.90;;;;;;5072473;28;20098;-65
2023/09/03 09:07:42;;;;;;;5.35;3.88;;;21.30;99.90;;;;;;5064343;28;20041;-63
2023/09/03 09:10:09;;;;;;;;;;;21.50;99.90;;;;;;5067317;28;20044;-65
2023/09/03 09:12:44;;;;;;;9.25;4.38;;;21.50;99.90;;;;;;5057656;28;19920;-65
2023/09/03 09:15:11;;;;;;;7.93;4.40;;;21.60;99.90;;;;;;5055684;28;20040;-65
2023/09/03 09:17:39;;;;;;;5.38;4.25;;;21.60;99.90;;;;;;5045009;28;20041;-65
2023/09/03 09:20:08;;;;;;;4.22;3.83;;;21.60;99.90;;;;;;5050280;28;20161;-64
2023/09/03 09:22:38;;;;;;;5.18;4.10;;;21.70;99.90;;;;;;5050930;28;20094;-65
2023/09/03 09:25:06;;;;;;;7.20;4.28;;;21.60;99.90;;;;;;5059373;28;20512;-65
2023/09/03 09:27:37;;;;;;;6.45;3.67;;;21.70;99.90;;;;;;5067066;28;20493;-65
2023/09/03 09:30:15;;;;;;;6.68;4.15;;;21.80;99.90;;;;;;5071490;28;20041;-65
2023/09/03 09:32:43;;;;;;;4.65;4.05;;;21.90;99.90;;;;;;5067956;28;20041;-65
2023/09/03 09:35:21;;;;;;;9.20;4.18;;;22.10;99.90;;;;;;5071580;28;20046;-66
2023/09/03 09:37:48;;;;;;;5.05;4.03;;;22.40;99.90;;;;;;5066307;28;20044;-65
2023/09/03 09:40:29;;;;;;;6.60;4.13;;;22.60;99.90;;;;;;5067665;28;20045;-65
2023/09/03 09:42:59;;;;;;;8.55;4.50;;;22.70;99.90;;;;;;5061105;28;20144;-65
2023/09/03 09:45:26;;;;;;;5.90;4.15;;;22.80;99.90;;;;;;5066734;28;20520;-65
2023/09/03 09:48:09;;;;;;;5.32;4.07;;;22.90;99.90;;;;;;5067393;28;20371;-65
2023/09/03 09:50:38;;;;;;;6.90;4.00;;;22.90;99.90;;;;;;5056484;28;20055;-65
2023/09/03 09:53:18;;;;;;;7.22;4.75;;;22.80;99.90;;;;;;5051038;28;20175;-65
2023/09/03 09:55:46;;;;;;;6.15;4.07;;;22.70;99.90;;;;;;5064920;28;20510;-65
2023/09/03 09:58:13;;;;;;;5.53;4.32;;;22.90;99.90;;;;;;5059681;28;20033;-65
2023/09/03 10:00:41;;;;;;;7.57;4.22;;;23.00;99.90;;;;;;5032995;28;20045;-66
2023/09/03 10:03:11;;;;;;;5.65;4.13;;;23.10;99.90;;;;;;5036658;28;20048;-66
2023/09/03 10:05:46;;;;;;;7.57;3.67;;;23.50;99.90;;;;;;5059162;28;20441;-64
2023/09/03 10:08:14;;;;;;;5.03;3.92;;;23.70;99.90;;;;;;5063087;28;20044;-65
2023/09/03 10:10:41;;;;;;;8.25;3.92;;;23.80;99.90;;;;;;5061856;28;20495;-65
2023/09/03 10:13:08;;;;;;;;;;;23.90;99.90;;;;;;5035537;28;20052;-65
2023/09/03 10:15:35;;;;;;;4.95;4.30;;;23.80;99.90;;;;;;5055325;28;19928;-65
2023/09/03 10:18:03;;;;;;;6.22;4.68;;;23.60;99.90;;;;;;5059893;28;20041;-65
2023/09/03 10:20:30;;;;;;;6.13;3.90;;;23.50;99.90;;;;;;5062502;28;20082;-65
2023/09/03 10:22:57;;;;;;;6.72;3.88;;;23.50;99.90;;;;;;5051128;28;20044;-65
2023/09/03 10:25:29;;;;;;;5.03;4.53;;;23.60;99.90;;;;;;5058848;28;20402;-65
2023/09/03 10:28:01;;;;;;;7.80;3.58;;;23.80;99.90;;;;;;5041932;28;20044;-65
2023/09/03 10:30:35;;;;;;;4.50;3.90;;;23.80;99.90;;;;;;5056214;28;20044;-64
2023/09/03 10:33:03;;;;;;;8.70;4.43;;;23.70;99.90;;;;;;5069367;28;20040;-65
2023/09/03 10:35:30;;;;;;;5.22;4.47;;;23.50;99.90;;;;;;5064276;28;20123;-65
2023/09/03 10:37:57;;;;;;;7.05;4.47;;;23.50;99.90;;;;;;5051791;28;20041;-65
2023/09/03 10:40:26;;;;;;;6.95;4.45;;;23.30;99.90;;;;;;5068312;28;20044;-65
2023/09/03 10:43:13;;;;;;;5.85;4.13;;;23.30;99.90;;;;;;5053854;28;20040;-65
2023/09/03 10:46:07;;;;;;;6.63;3.70;;;23.40;99.90;;;;;;5052923;28;20045;-63
2023/09/03 10:48:35;;;;;;;26.38;5.00;;;23.60;99.90;;;;;;5050550;28;20563;-65
2023/09/03 10:51:02;;;;;;;6.32;4.20;;;23.90;99.90;;;;;;5058805;28;20045;-65
2023/09/03 10:53:42;;;;;;;6.50;3.75;;;24.20;99.90;;;;;;5067012;28;20048;-65
2023/09/03 10:56:14;;;;;;;4.57;3.65;;;24.30;99.90;;;;;;5068833;28;20040;-65
2023/09/03 10:59:00;;;;;;;6.03;3.92;;;24.20;99.90;;;;;;5063745;28;20044;-65
2023/09/03 11:01:31;;;;;;;4.10;3.35;;;24.10;99.90;;;;;;5054465;28;20115;-65
2023/09/03 11:04:00;;;;;;;4.75;3.50;;;24.00;99.90;;;;;;5069014;28;20098;-65
2023/09/03 11:06:31;;;;;;;7.35;3.38;;;24.00;99.90;;;;;;5062960;28;20052;-65
2023/09/03 11:09:09;;;;;;;5.07;3.55;;;24.00;99.90;;;;;;5061203;28;20045;-65
2023/09/03 11:11:38;;;;;;;5.30;3.10;;;23.80;99.90;;;;;;5055958;28;20045;-65
2023/09/03 11:14:06;;;;;;;5.32;3.90;;;23.70;99.90;;;;;;5059175;28;20045;-65
2023/09/03 11:16:35;;;;;;;6.15;3.40;;;23.80;99.90;;;;;;5050175;28;20039;-65
2023/09/03 11:19:04;;;;;;;5.70;3.47;;;23.90;99.90;;;;;;5061420;28;20128;-65
2023/09/03 11:21:31;;;;;;;6.63;3.45;;;24.00;99.90;;;;;;5068259;28;20048;-65
2023/09/03 11:24:02;;;;;;;5.50;3.33;;;24.00;99.90;;;;;;5051277;28;20033;-65
2023/09/03 11:26:29;;;;;;;4.68;3.50;;;24.00;99.90;;;;;;5061902;28;20044;-65
2023/09/03 11:28:57;;;;;;;5.22;3.40;;;24.00;99.90;;;;;;5068816;28;20079;-65
2023/09/03 11:31:26;;;;;;;3.97;3.22;;;24.20;99.90;;;;;;5057832;28;20045;-65
2023/09/03 11:33:55;;;;;;;4.28;3.70;;;24.10;99.90;;;;;;5049331;28;20057;-65
2023/09/03 11:36:24;;;;;;;5.93;3.63;;;24.20;99.90;;;;;;5062028;28;20048;-64
2023/09/03 11:38:52;;;;;;;5.60;3.28;;;24.20;99.90;;;;;;5052993;28;20048;-65
2023/09/03 11:41:20;;;;;;;6.00;3.17;;;24.30;99.90;;;;;;5064666;28;20399;-65
2023/09/03 11:43:47;;;;;;;4.95;3.40;;;24.30;99.90;;;;;;5056709;28;20052;-65
2023/09/03 11:46:16;;;;;;;4.55;3.13;;;24.30;99.90;;;;;;5050186;28;20055;-65
2023/09/03 11:48:54;;;;;;;4.28;3.10;;;24.40;99.90;;;;;;5057876;28;20076;-65
2023/09/03 11:51:25;;;;;;;4.47;2.90;;;24.30;99.90;;;;;;5061688;28;20040;-65
2023/09/03 11:53:55;;;;;;;4.43;3.10;;;24.20;99.90;;;;;;5043168;28;20565;-65
2023/09/03 11:56:22;;;;;;;;;;;24.30;99.90;;;;;;5062559;28;20048;-65
2023/09/03 11:58:57;;;;;;;5.28;3.50;;;24.30;99.90;;;;;;5069074;28;19924;-65
2023/09/03 12:01:24;;;;;;;5.43;3.30;;;24.40;99.90;;;;;;5055848;28;20047;-65
2023/09/03 12:03:52;;;;;;;4.85;3.30;;;24.50;99.90;;;;;;5055504;28;20166;-65
2023/09/03 12:06:20;;;;;;;4.32;3.25;;;24.40;99.90;;;;;;5058899;28;20048;-65
2023/09/03 12:08:47;;;;;;;5.68;2.90;;;24.40;99.90;;;;;;5048169;28;20045;-65
2023/09/03 12:11:14;;;;;;;7.35;3.20;;;24.50;99.90;;;;;;5060014;28;20045;-65
2023/09/03 12:13:41;;;;;;;;;;;24.50;99.90;;;;;;5054906;28;20049;-65
2023/09/03 12:16:10;;;;;;;3.90;3.15;;;24.40;99.90;;;;;;5057245;28;19926;-65
2023/09/03 12:18:38;;;;;;;5.43;3.00;;;24.50;99.90;;;;;;5056292;28;20048;-65
2023/09/03 12:21:07;;;;;;;6.20;3.50;;;24.50;99.90;;;;;;5057609;28;20033;-65
2023/09/03 12:23:35;;;;;;;4.88;3.05;;;24.30;99.90;;;;;;5057559;28;20442;-65
2023/09/03 12:26:02;;;;;;;5.00;3.20;;;24.20;99.90;;;;;;5057563;28;20041;-64
2023/09/03 12:28:34;;;;;;;;;;;24.30;99.90;;;;;;5058124;28;20040;-63
2023/09/03 12:31:03;;;;;;;4.22;2.83;;;24.30;99.90;;;;;;5057430;28;19921;-63
2023/09/03 12:33:33;;;;;;;4.85;2.85;;;24.30;99.90;;;;;;5058070;28;20099;-65
2023/09/03 12:36:07;;;;;;;4.93;3.08;;;24.30;99.90;;;;;;5063292;28;20420;-65
2023/09/03 12:38:53;;;;;;;4.35;2.80;;;24.20;99.90;;;;;;5071522;28;20044;-65
2023/09/03 12:41:21;;;;;;;4.18;2.83;;;24.20;99.90;;;;;;5068974;28;20044;-65
2023/09/03 12:43:48;;;;;;;3.42;2.78;;;24.30;99.90;;;;;;5073326;28;20516;-65
2023/09/03 12:46:15;;;;;;;5.05;3.10;;;24.30;99.90;;;;;;5063516;28;20045;-65
2023/09/03 12:48:43;;;;;;;4.25;2.63;;;24.30;99.90;;;;;;5059774;28;20135;-65
2023/09/03 12:51:12;;;;;;;4.85;3.03;;;24.40;99.90;;;;;;5063320;28;20064;-65
2023/09/03 12:53:39;;;;;;;4.68;3.10;;;24.40;99.90;;;;;;5064505;28;20505;-65
2023/09/03 12:56:07;;;;;;;5.53;2.83;;;24.50;99.90;;;;;;5064314;28;20390;-65
2023/09/03 12:58:34;;;;;;;4.45;2.97;;;24.50;99.90;;;;;;5064266;28;20047;-65